Time;durP1;ratioP1;P1;durP2;ratioP2;P2;SDS_P1;SDS_P2;PMS_P1;PMS_P2;Temp;Humidity;BMP_temperature;BMP_pressure;BME280_temperature;BME280_humidity;BME280_pressure;Samples;Min_cycle;Max_cycle;Signal;HPM_P1;HPM_P2
2023/06/02 00:02:15;;;;;;;13.60;8.50;;;;;;;14.98;69.10;98238.95;104854;1262;98063;-66
2023/06/02 00:04:44;;;;;;;12.30;7.90;;;;;;;14.94;69.12;98239.31;104893;1281;97922;-66
2023/06/02 00:07:11;;;;;;;14.10;8.00;;;;;;;14.93;69.05;98239.38;104934;1281;97985;-66
2023/06/02 00:09:40;;;;;;;12.20;7.50;;;;;;;14.95;69.07;98242.01;104885;1266;97974;-66
2023/06/02 00:12:10;;;;;;;12.60;8.60;;;;;;;14.96;69.10;98242.11;104536;1266;110926;-67
2023/06/02 00:14:42;;;;;;;10.90;8.30;;;;;;;14.98;69.06;98245.59;104623;1265;99087;-66
2023/06/02 00:17:10;;;;;;;12.00;8.20;;;;;;;15.00;69.07;98249.02;104563;1267;107536;-66
2023/06/02 00:19:42;;;;;;;13.30;8.10;;;;;;;15.00;69.10;98247.59;104837;1266;98076;-67
2023/06/02 00:22:13;;;;;;;11.40;7.60;;;;;;;14.99;69.11;98251.65;104506;1264;494388;-66
2023/06/02 00:24:42;;;;;;;14.60;7.60;;;;;;;14.98;69.15;98249.51;104857;1263;112362;-65
2023/06/02 00:27:10;;;;;;;11.80;8.00;;;;;;;14.98;69.03;98255.58;104803;1264;99324;-66
2023/06/02 00:29:43;;;;;;;11.70;7.50;;;;;;;14.97;69.03;98254.83;104885;1263;108656;-66
2023/06/02 00:32:14;;;;;;;9.90;7.40;;;;;;;14.86;69.30;98263.69;104828;1262;97898;-65
2023/06/02 00:34:46;;;;;;;11.10;7.20;;;;;;;14.74;69.55;98260.89;104765;1260;99100;-66
2023/06/02 00:37:21;;;;;;;11.90;7.00;;;;;;;14.64;69.57;98255.65;104825;1274;112372;-66
2023/06/02 00:39:56;;;;;;;10.30;7.00;;;;;;;14.60;69.68;98257.85;104813;1262;99331;-65
2023/06/02 00:42:29;;;;;;;13.40;7.10;;;;;;;14.59;69.65;98259.38;104816;1264;108268;-66
2023/06/02 00:44:57;;;;;;;9.70;6.70;;;;;;;14.57;69.58;98259.40;104632;1263;97927;-66
2023/06/02 00:47:24;;;;;;;10.40;6.50;;;;;;;14.57;69.52;98260.89;104680;1271;98016;-66
2023/06/02 00:49:53;;;;;;;12.20;6.10;;;;;;;14.54;69.62;98257.11;104627;1262;111495;-65
2023/06/02 00:52:20;;;;;;;13.20;6.30;;;;;;;14.52;69.71;98255.42;104654;1265;98170;-64
2023/06/02 00:54:47;;;;;;;10.80;6.70;;;;;;;14.52;69.58;98254.63;104829;1263;98863;-63
2023/06/02 00:57:16;;;;;;;14.30;7.30;;;;;;;14.55;69.51;98254.48;104870;1273;97992;-64
2023/06/02 00:59:45;;;;;;;11.60;6.50;;;;;;;14.56;69.58;98251.49;104652;1260;98916;-64
2023/06/02 01:02:13;;;;;;;13.60;6.70;;;;;;;14.55;69.53;98251.09;104575;1267;111228;-64
2023/06/02 01:04:41;;;;;;;10.10;6.70;;;;;;;14.51;69.65;98251.02;104846;1264;99402;-66
2023/06/02 01:07:10;;;;;;;11.30;6.40;;;;;;;14.40;69.82;98247.83;104821;1258;108806;-63
2023/06/02 01:09:38;;;;;;;11.20;6.30;;;;;;;14.32;70.09;98244.07;104527;1267;98082;-63
2023/06/02 01:12:06;;;;;;;10.40;6.40;;;;;;;14.29;70.04;98245.95;104893;1262;98004;-64
2023/06/02 01:14:34;;;;;;;9.30;6.40;;;;;;;14.26;70.13;98245.31;104913;1262;112339;-65
2023/06/02 01:17:02;;;;;;;8.30;5.90;;;;;;;14.27;70.05;98248.94;104621;1266;98079;-63
2023/06/02 01:19:31;;;;;;;9.40;6.20;;;;;;;14.24;69.96;98246.59;104602;1271;107079;-64
2023/06/02 01:22:03;;;;;;;11.70;6.40;;;;;;;14.19;70.18;98250.94;104561;1264;97987;-63
2023/06/02 01:24:39;;;;;;;10.10;6.50;;;;;;;14.13;70.22;98255.33;104458;1266;99703;-65
2023/06/02 01:27:15;;;;;;;10.20;6.50;;;;;;;14.01;70.46;98253.48;104374;1265;111229;-63
2023/06/02 01:29:45;;;;;;;13.70;6.40;;;;;;;13.98;70.44;98254.54;104489;1267;98327;-67
2023/06/02 01:32:31;;;;;;;10.40;6.30;;;;;;;13.97;70.57;98252.55;104436;1267;107450;-66
2023/06/02 01:35:12;;;;;;;11.20;6.60;;;;;;;13.97;70.59;98252.77;104567;1263;99248;-66
2023/06/02 01:37:54;;;;;;;8.10;5.80;;;;;;;13.96;70.83;98250.09;104827;1263;98837;-67
2023/06/02 01:40:26;;;;;;;9.00;6.40;;;;;;;13.96;70.71;98256.23;104531;1262;112386;-67
2023/06/02 01:42:54;;;;;;;10.90;6.40;;;;;;;13.97;70.79;98264.44;104857;1263;99240;-66
2023/06/02 01:45:21;;;;;;;10.50;6.50;;;;;;;13.94;70.85;98267.74;104824;1264;108799;-67
2023/06/02 01:47:48;;;;;;;9.60;6.10;;;;;;;13.92;70.91;98265.34;104819;1273;99228;-66
2023/06/02 01:50:15;;;;;;;14.50;6.60;;;;;;;13.92;70.93;98264.14;104857;1263;99269;-67
2023/06/02 01:52:43;;;;;;;11.30;7.10;;;;;;;13.87;71.04;98269.65;104865;1263;98099;-66
2023/06/02 01:55:10;;;;;;;10.20;6.30;;;;;;;13.82;71.25;98272.48;104754;1268;98044;-67
2023/06/02 01:57:37;;;;;;;13.60;7.00;;;;;;;13.75;71.58;98274.95;104899;1263;97963;-67
2023/06/02 02:00:05;;;;;;;9.90;6.80;;;;;;;13.64;71.70;98273.95;104870;1262;97903;-66
2023/06/02 02:02:32;;;;;;;9.40;6.50;;;;;;;13.58;72.26;98275.81;104880;1262;98044;-67
2023/06/02 02:04:59;;;;;;;10.30;6.50;;;;;;;13.47;72.34;98276.38;104727;1262;99244;-66
2023/06/02 02:07:28;;;;;;;12.40;6.00;;;;;;;13.43;72.39;98275.48;104619;1269;97929;-68
2023/06/02 02:09:56;;;;;;;17.20;6.90;;;;;;;13.41;72.57;98274.79;104470;1281;108178;-68
2023/06/02 02:12:24;;;;;;;10.20;6.30;;;;;;;13.37;72.64;98275.80;104796;1270;97993;-66
2023/06/02 02:14:53;;;;;;;10.30;6.40;;;;;;;13.35;72.65;98275.17;104880;1273;98689;-65
2023/06/02 02:17:24;;;;;;;10.70;6.20;;;;;;;13.35;72.79;98275.98;104563;1282;111691;-66
2023/06/02 02:19:55;;;;;;;;;;;;;;;13.39;72.72;98275.10;104535;1267;98686;-65
2023/06/02 02:22:23;;;;;;;;;;;;;;;13.37;73.04;98278.23;104502;1267;107640;-64
2023/06/02 02:24:51;;;;;;;9.60;6.30;;;;;;;13.26;73.18;98279.52;104662;1261;97918;-65
2023/06/02 02:27:18;;;;;;;9.60;6.50;;;;;;;13.20;73.28;98278.16;104788;1264;97951;-66
2023/06/02 02:29:45;;;;;;;14.80;6.50;;;;;;;13.15;73.52;98279.96;104707;1264;98013;-65
2023/06/02 02:32:12;;;;;;;9.70;6.70;;;;;;;13.12;73.52;98279.38;104662;1260;97933;-65
2023/06/02 02:34:39;;;;;;;13.60;6.80;;;;;;;13.08;73.55;98277.52;104697;1264;98019;-65
2023/06/02 02:37:08;;;;;;;10.10;6.80;;;;;;;13.04;73.71;98284.71;104766;1274;97922;-64
2023/06/02 02:39:36;;;;;;;12.40;7.40;;;;;;;12.96;74.01;98285.70;104739;1260;99223;-65
2023/06/02 02:42:03;;;;;;;10.80;6.70;;;;;;;12.95;73.78;98283.52;104751;1282;98688;-63
2023/06/02 02:44:33;;;;;;;10.40;6.90;;;;;;;12.93;73.70;98288.58;104426;1265;98017;-66
2023/06/02 02:47:09;;;;;;;11.20;6.40;;;;;;;12.92;73.85;98285.85;104310;1265;107681;-67
2023/06/02 02:49:41;;;;;;;12.60;6.30;;;;;;;12.96;73.92;98284.98;104476;1267;98690;-66
2023/06/02 02:52:12;;;;;;;9.90;6.60;;;;;;;12.99;73.89;98285.23;104669;1263;98364;-67
2023/06/02 02:54:40;;;;;;;12.60;6.80;;;;;;;12.98;74.38;98288.65;104708;1260;111881;-66
2023/06/02 02:57:07;;;;;;;10.40;6.40;;;;;;;12.91;74.30;98295.31;104437;1259;98269;-65
2023/06/02 02:59:35;;;;;;;11.10;7.00;;;;;;;12.90;74.73;98295.07;104561;1276;97937;-64
2023/06/02 03:02:05;;;;;;;12.40;6.70;;;;;;;12.84;74.85;98296.33;104706;1275;101312;-64
2023/06/02 03:04:34;;;;;;;11.10;6.80;;;;;;;12.81;74.96;98289.71;104641;1264;99051;-62
2023/06/02 03:07:01;;;;;;;9.10;6.50;;;;;;;12.87;74.93;98295.65;104718;1264;112195;-67
2023/06/02 03:09:29;;;;;;;11.50;6.90;;;;;;;12.83;75.16;98294.87;104712;1260;98073;-67
2023/06/02 03:11:57;;;;;;;10.10;7.10;;;;;;;12.77;75.41;98299.54;104714;1264;97942;-66
2023/06/02 03:14:29;;;;;;;12.90;7.00;;;;;;;12.76;75.28;98305.81;104610;1268;98028;-68
2023/06/02 03:16:59;;;;;;;10.70;7.10;;;;;;;12.77;75.51;98308.28;104770;1264;98520;-67
2023/06/02 03:19:31;;;;;;;9.80;6.60;;;;;;;12.82;75.64;98308.61;104512;1267;111862;-67
2023/06/02 03:21:58;;;;;;;11.50;6.40;;;;;;;12.89;75.59;98312.86;104638;1264;98084;-66
2023/06/02 03:24:26;;;;;;;11.40;6.80;;;;;;;12.97;75.29;98319.35;104613;1264;106418;-68
2023/06/02 03:26:55;;;;;;;12.00;6.80;;;;;;;13.04;75.23;98325.31;104831;1269;98018;-68
2023/06/02 03:29:22;;;;;;;11.30;6.50;;;;;;;13.12;75.31;98330.25;104344;1265;99335;-72
2023/06/02 03:31:55;;;;;;;14.50;7.20;;;;;;;13.22;75.11;98334.11;104420;1265;111811;-68
2023/06/02 03:34:22;;;;;;;8.50;6.00;;;;;;;13.33;75.13;98342.68;104774;1270;98179;-67
2023/06/02 03:36:49;;;;;;;12.80;7.10;;;;;;;13.38;75.01;98344.82;104806;1260;108777;-67
2023/06/02 03:39:17;;;;;;;12.50;7.40;;;;;;;13.43;74.91;98346.80;104750;1262;98030;-64
2023/06/02 03:41:44;;;;;;;13.40;7.40;;;;;;;13.51;75.20;98346.29;104571;1278;98684;-67
2023/06/02 03:44:14;;;;;;;12.50;6.80;;;;;;;13.57;74.97;98350.29;104538;1281;111820;-71
2023/06/02 03:46:42;;;;;;;10.70;7.20;;;;;;;13.64;75.12;98352.79;104491;1269;99023;-67
2023/06/02 03:49:09;;;;;;;12.60;7.10;;;;;;;13.68;75.42;98357.34;104708;1262;98025;-68
2023/06/02 03:51:36;;;;;;;11.70;8.00;;;;;;;13.77;75.29;98362.09;104880;1275;97961;-68
2023/06/02 03:54:04;;;;;;;12.10;7.80;;;;;;;13.89;74.98;98360.63;104888;1259;98667;-69
2023/06/02 03:56:31;;;;;;;11.10;7.80;;;;;;;13.99;74.97;98364.15;104860;1273;97933;-67
2023/06/02 03:58:58;;;;;;;15.10;8.50;;;;;;;14.09;75.01;98361.92;104869;1264;98070;-69
2023/06/02 04:01:25;;;;;;;12.40;6.90;;;;;;;14.15;74.57;98368.59;104851;1274;97926;-69
2023/06/02 04:03:52;;;;;;;11.20;6.70;;;;;;;14.27;74.52;98369.60;104799;1262;98024;-66
2023/06/02 04:06:21;;;;;;;13.40;8.00;;;;;;;14.37;74.57;98370.77;104860;1270;97932;-68
2023/06/02 04:08:48;;;;;;;11.40;7.20;;;;;;;14.53;74.05;98370.36;104910;1262;99353;-68
2023/06/02 04:11:15;;;;;;;12.10;7.20;;;;;;;14.60;73.84;98366.79;104814;1258;97932;-68
2023/06/02 04:13:42;;;;;;;11.70;8.20;;;;;;;14.70;73.74;98370.46;104823;1261;99286;-69
2023/06/02 04:16:09;;;;;;;14.00;8.10;;;;;;;14.82;73.50;98369.49;104810;1275;99224;-69
2023/06/02 04:18:40;;;;;;;13.50;7.70;;;;;;;14.91;73.19;98371.20;104902;1262;97959;-68
2023/06/02 04:21:08;;;;;;;12.20;6.90;;;;;;;15.04;72.83;98370.14;104549;1266;111879;-69
2023/06/02 04:23:34;;;;;;;11.30;7.30;;;;;;;15.18;72.47;98373.27;104562;1275;98868;-69
2023/06/02 04:26:02;;;;;;;12.80;8.00;;;;;;;15.36;72.16;98376.30;104821;1260;98351;-69
2023/06/02 04:28:29;;;;;;;15.20;7.50;;;;;;;15.52;71.68;98377.27;104647;1262;98012;-66
2023/06/02 04:31:04;;;;;;;11.80;7.50;;;;;;;15.64;71.12;98377.02;104861;1260;97934;-69
2023/06/02 04:33:31;;;;;;;14.90;7.50;;;;;;;15.79;70.75;98377.01;104494;1267;110000;-67
2023/06/02 04:35:59;;;;;;;12.20;7.30;;;;;;;15.89;70.62;98377.48;104608;1262;99251;-69
2023/06/02 04:38:26;;;;;;;16.50;7.50;;;;;;;15.96;70.15;98377.90;104680;1262;98049;-68
2023/06/02 04:40:56;;;;;;;14.40;7.60;;;;;;;16.08;69.69;98379.87;104503;1266;98556;-69
2023/06/02 04:43:23;;;;;;;9.70;7.00;;;;;;;16.21;69.23;98382.69;104558;1265;99737;-69
2023/06/02 04:45:50;;;;;;;11.00;6.50;;;;;;;16.23;68.96;98379.91;104663;1263;97954;-69
2023/06/02 04:48:17;;;;;;;12.40;6.70;;;;;;;16.25;68.48;98372.84;104746;1265;98010;-68
2023/06/02 04:50:45;;;;;;;10.90;6.50;;;;;;;16.28;68.36;98374.33;104496;1263;97942;-69
2023/06/02 04:53:15;;;;;;;15.30;6.80;;;;;;;16.40;67.89;98378.08;104698;1259;99172;-71
2023/06/02 04:55:45;;;;;;;10.10;7.00;;;;;;;16.53;67.48;98379.21;104648;1264;97976;-68
2023/06/02 04:58:12;;;;;;;14.10;6.90;;;;;;;16.57;67.21;98378.45;104685;1263;112119;-66
2023/06/02 05:00:39;;;;;;;9.90;6.40;;;;;;;16.69;67.16;98375.70;104668;1265;99251;-66
2023/06/02 05:03:06;;;;;;;11.80;6.70;;;;;;;16.82;66.83;98376.38;104620;1271;97938;-66
2023/06/02 05:05:33;;;;;;;13.60;7.10;;;;;;;16.93;66.86;98378.66;104533;1266;98012;-66
2023/06/02 05:08:00;;;;;;;10.40;6.10;;;;;;;16.99;65.67;98378.63;104471;1260;97925;-66
2023/06/02 05:10:28;;;;;;;9.90;5.70;;;;;;;16.99;64.64;98376.71;104640;1263;99226;-65
2023/06/02 14:58:45;;;;;;;5.90;2.50;;;;;;;19.90;44.22;98556.40;102784;1296;648676;-65
2023/06/02 15:01:19;;;;;;;5.20;2.40;;;;;;;20.09;43.57;98561.95;103985;1270;306144;-69
2023/06/02 15:03:46;;;;;;;8.40;2.40;;;;;;;19.96;42.93;98563.69;104410;1270;94357;-69
2023/06/02 15:06:13;;;;;;;5.30;2.20;;;;;;;19.71;43.00;98558.33;104419;1270;94475;-66
2023/06/02 15:08:40;;;;;;;3.90;2.10;;;;;;;19.61;44.33;98567.73;104201;1272;94280;-64
2023/06/02 15:11:08;;;;;;;3.60;2.30;;;;;;;19.52;44.80;98566.26;104259;1270;94379;-68
2023/06/02 15:13:35;;;;;;;4.50;2.60;;;;;;;19.42;45.45;98572.86;104416;1287;95713;-67
2023/06/02 15:16:02;;;;;;;3.40;2.20;;;;;;;19.40;45.00;98570.54;104493;1269;94293;-68
2023/06/02 15:18:30;;;;;;;4.70;2.50;;;;;;;19.18;44.98;98571.98;104501;1270;94303;-68
2023/06/02 15:21:09;;;;;;;6.90;3.30;;;;;;;19.13;46.02;98575.88;104446;1277;99224;-68
2023/06/02 15:23:37;;;;;;;4.90;3.00;;;;;;;19.24;46.73;98573.89;104250;1277;107664;-69
2023/06/02 15:26:04;;;;;;;6.50;2.80;;;;;;;19.32;46.21;98568.54;104380;1269;95237;-68
2023/06/02 15:28:32;;;;;;;6.40;3.30;;;;;;;19.26;46.18;98569.64;104443;1268;95210;-71
2023/06/02 15:30:59;;;;;;;6.30;2.80;;;;;;;19.21;46.98;98567.73;104547;1270;96123;-66
2023/06/02 15:33:27;;;;;;;5.60;2.90;;;;;;;19.18;47.02;98566.42;104467;1277;100158;-65
2023/06/02 15:35:54;;;;;;;6.10;2.80;;;;;;;19.17;47.02;98569.04;104560;1276;96133;-66
2023/06/02 15:38:21;;;;;;;7.20;2.70;;;;;;;19.06;46.30;98570.04;104597;1276;95221;-67
2023/06/02 15:40:48;;;;;;;6.30;2.80;;;;;;;18.92;47.18;98575.92;104615;1267;95226;-68
2023/06/02 15:43:16;;;;;;;6.30;3.20;;;;;;;18.83;47.52;98578.10;104549;1267;95212;-66
2023/06/02 15:45:43;;;;;;;5.60;2.60;;;;;;;18.77;47.21;98581.56;104602;1260;95285;-67
2023/06/02 15:48:10;;;;;;;3.30;2.00;;;;;;;18.66;46.77;98577.19;104446;1266;96542;-67
2023/06/02 15:50:38;;;;;;;5.00;2.40;;;;;;;18.49;47.13;98577.85;104600;1269;95199;-68
2023/06/02 15:53:05;;;;;;;4.90;2.50;;;;;;;18.37;46.54;98582.48;104484;1269;96098;-67
2023/06/02 15:55:34;;;;;;;3.40;2.40;;;;;;;18.33;46.75;98587.23;104635;1267;95989;-65
2023/06/02 15:58:01;;;;;;;3.10;2.10;;;;;;;18.28;47.17;98591.98;104693;1269;95205;-67
2023/06/02 16:00:28;;;;;;;4.80;2.50;;;;;;;18.23;47.80;98593.80;104556;1267;95199;-67
2023/06/02 16:02:55;;;;;;;4.50;2.50;;;;;;;18.28;48.45;98595.38;104567;1264;95227;-67
2023/06/02 16:05:24;;;;;;;4.60;2.20;;;;;;;18.22;47.98;98594.23;104624;1266;96123;-65
2023/06/02 16:07:51;;;;;;;4.60;2.30;;;;;;;18.16;46.78;98593.73;104575;1267;108385;-67
2023/06/02 16:10:19;;;;;;;3.60;2.40;;;;;;;18.09;47.75;98593.50;104575;1270;95276;-67
2023/06/02 16:12:51;;;;;;;4.70;2.30;;;;;;;17.96;48.32;98600.14;104525;1274;95239;-65
2023/06/02 16:15:18;;;;;;;4.90;2.00;;;;;;;17.82;48.32;98604.67;104599;1267;95233;-67
2023/06/02 16:17:45;;;;;;;5.60;2.50;;;;;;;17.72;48.84;98611.05;104600;1276;95982;-67
2023/06/02 16:20:13;;;;;;;7.90;2.60;;;;;;;17.62;48.98;98608.69;104617;1275;106850;-67
2023/06/02 16:22:40;;;;;;;5.30;2.50;;;;;;;17.55;49.51;98613.38;104567;1276;99857;-67
2023/06/02 16:25:08;;;;;;;3.90;2.30;;;;;;;17.55;49.98;98614.73;104574;1267;95265;-67
2023/06/02 16:27:35;;;;;;;3.40;2.70;;;;;;;17.52;50.13;98619.73;104617;1264;95236;-67
2023/06/02 16:30:04;;;;;;;4.50;2.60;;;;;;;17.50;49.79;98619.23;104618;1285;96114;-67
2023/06/02 16:32:32;;;;;;;3.60;2.40;;;;;;;17.42;50.28;98623.32;104568;1276;109762;-68
2023/06/02 16:35:00;;;;;;;3.90;2.30;;;;;;;17.31;50.63;98625.35;104581;1268;99286;-68
2023/06/02 16:37:27;;;;;;;3.60;2.60;;;;;;;17.21;50.74;98629.08;104631;1276;108550;-67
2023/06/02 16:39:54;;;;;;;4.00;2.30;;;;;;;17.20;50.96;98628.96;104571;1267;95170;-67
2023/06/02 16:42:22;;;;;;;5.80;2.30;;;;;;;17.19;51.08;98627.77;104409;1269;95192;-67
2023/06/02 16:44:53;;;;;;;6.20;2.30;;;;;;;17.15;50.55;98628.15;104805;1277;95325;-68
2023/06/02 16:47:21;;;;;;;3.40;2.20;;;;;;;17.08;50.50;98627.58;104516;1266;96070;-70
2023/06/02 16:49:48;;;;;;;5.80;2.60;;;;;;;17.05;51.03;98631.21;104362;1267;108557;-67
2023/06/02 16:52:16;;;;;;;3.40;2.40;;;;;;;17.03;51.46;98629.74;104566;1266;95299;-67
2023/06/02 16:54:43;;;;;;;2.60;1.70;;;;;;;17.00;51.93;98631.48;104580;1276;96116;-66
2023/06/02 16:57:10;;;;;;;4.60;2.00;;;;;;;16.93;51.84;98629.24;104572;1268;96208;-66
2023/06/02 16:59:37;;;;;;;4.50;2.40;;;;;;;16.88;51.83;98631.59;104590;1277;95724;-66
2023/06/02 17:02:05;;;;;;;4.70;2.60;;;;;;;16.86;52.00;98632.40;104516;1274;95163;-65
2023/06/02 17:04:32;;;;;;;4.80;2.00;;;;;;;16.81;52.19;98634.41;104604;1265;95301;-67
2023/06/02 17:06:59;;;;;;;2.80;2.20;;;;;;;16.79;52.13;98639.84;104592;1266;95212;-65
2023/06/02 17:09:26;;;;;;;3.90;2.40;;;;;;;16.78;52.82;98645.34;104578;1264;95283;-65
2023/06/02 17:11:54;;;;;;;8.30;1.50;;;;;;;16.73;53.40;98649.71;104588;1263;96204;-66
2023/06/02 17:14:21;;;;;;;2.90;1.70;;;;;;;16.58;54.37;98650.52;104625;1267;95205;-66
2023/06/02 17:16:48;;;;;;;4.10;2.50;;;;;;;16.43;55.35;98653.60;104586;1264;95292;-66
2023/06/02 17:19:16;;;;;;;5.00;1.90;;;;;;;16.29;56.20;98661.41;104511;1267;96114;-66
2023/06/02 17:21:43;;;;;;;5.10;2.50;;;;;;;16.14;56.93;98663.80;104377;1264;95811;-67
2023/06/02 17:24:10;;;;;;;4.70;2.40;;;;;;;16.05;57.42;98664.31;104455;1267;95295;-67
2023/06/02 17:26:40;;;;;;;5.10;3.00;;;;;;;15.94;57.89;98667.77;104602;1276;96102;-68
2023/06/02 17:29:07;;;;;;;5.30;2.60;;;;;;;15.85;57.95;98679.10;104633;1276;95193;-66
2023/06/02 17:31:34;;;;;;;7.00;2.80;;;;;;;15.83;57.89;98679.69;104582;1267;95207;-67
2023/06/02 17:34:02;;;;;;;5.20;2.30;;;;;;;15.76;57.44;98686.75;104675;1276;108738;-68
2023/06/02 17:36:29;;;;;;;4.70;2.80;;;;;;;15.67;57.47;98689.78;104684;1277;99223;-67
2023/06/02 17:38:56;;;;;;;3.90;2.40;;;;;;;15.58;57.78;98688.94;104480;1265;95241;-67
2023/06/02 17:41:24;;;;;;;11.60;5.60;;;;;;;15.49;58.12;98691.30;104503;1267;95205;-66
2023/06/02 17:43:51;;;;;;;5.80;2.80;;;;;;;15.46;58.31;98693.64;104587;1276;95285;-67
2023/06/02 17:46:19;;;;;;;3.50;2.40;;;;;;;15.42;58.68;98696.06;104929;1268;96084;-67
2023/06/02 17:48:47;;;;;;;3.50;2.40;;;;;;;15.36;58.96;98699.02;104480;1265;97458;-68
2023/06/02 17:51:15;;;;;;;4.30;3.10;;;;;;;15.29;59.24;98700.42;104535;1268;108785;-66
2023/06/02 17:53:42;;;;;;;2.90;2.30;;;;;;;15.19;59.35;98697.04;104577;1276;95251;-68
2023/06/02 17:56:09;;;;;;;3.90;2.80;;;;;;;15.10;59.52;98703.84;104659;1265;95120;-68
2023/06/02 17:58:37;;;;;;;4.60;3.70;;;;;;;15.03;59.89;98705.13;104638;1267;95241;-67
2023/06/02 18:01:04;;;;;;;5.90;3.40;;;;;;;14.97;60.29;98707.82;104570;1267;95195;-67
2023/06/02 18:03:32;;;;;;;3.00;2.50;;;;;;;14.89;60.54;98713.88;104455;1267;108849;-68
2023/06/02 18:06:00;;;;;;;4.60;3.10;;;;;;;14.82;61.29;98715.29;104334;1279;95195;-68
2023/06/02 18:08:27;;;;;;;5.90;3.30;;;;;;;14.72;62.21;98722.47;104538;1267;95287;-71
2023/06/02 18:10:54;;;;;;;8.60;3.30;;;;;;;14.61;62.80;98720.53;104384;1267;96212;-71
2023/06/02 18:13:21;;;;;;;4.50;3.30;;;;;;;14.54;63.38;98722.73;104591;1265;96102;-68
2023/06/02 18:15:48;;;;;;;5.80;3.50;;;;;;;14.50;63.72;98728.73;104593;1263;95313;-68
2023/06/02 18:18:16;;;;;;;6.50;3.70;;;;;;;14.45;64.29;98732.64;104603;1276;95215;-62
2023/06/02 18:20:44;;;;;;;10.70;6.70;;;;;;;14.37;64.69;98734.41;104586;1265;96113;-65
2023/06/02 18:23:11;;;;;;;12.00;9.20;;;;;;;14.30;64.95;98736.67;104615;1266;95246;-66
2023/06/02 18:25:38;;;;;;;23.00;14.20;;;;;;;14.22;65.48;98741.33;104589;1276;95316;-67
2023/06/02 18:28:05;;;;;;;8.00;5.60;;;;;;;14.12;65.74;98744.97;104541;1268;96119;-66
2023/06/02 18:30:32;;;;;;;13.70;4.20;;;;;;;14.04;66.02;98752.70;104593;1269;96556;-66
2023/06/02 18:32:59;;;;;;;5.90;2.80;;;;;;;13.98;66.41;98759.08;104570;1265;95221;-65
2023/06/02 18:35:28;;;;;;;6.60;4.00;;;;;;;13.90;66.75;98762.66;104607;1274;95343;-65
2023/06/02 18:37:56;;;;;;;8.80;3.60;;;;;;;13.83;66.93;98767.50;104597;1266;95866;-66
2023/06/02 18:40:23;;;;;;;7.80;4.00;;;;;;;13.75;67.67;98770.16;104569;1268;95204;-68
2023/06/02 18:42:49;;;;;;;7.80;4.00;;;;;;;13.69;67.99;98772.85;104559;1268;95325;-62
2023/06/02 18:45:17;;;;;;;9.10;4.30;;;;;;;13.64;68.33;98777.92;104682;1277;95163;-68
2023/06/02 18:47:47;;;;;;;9.50;3.70;;;;;;;13.61;68.75;98783.45;104486;1265;95224;-64
2023/06/02 18:50:15;;;;;;;8.00;3.80;;;;;;;13.59;68.71;98783.40;104562;1268;99265;-66
2023/06/02 18:52:42;;;;;;;6.80;3.70;;;;;;;13.55;69.09;98785.27;104553;1267;106275;-65
2023/06/02 18:55:10;;;;;;;9.80;3.50;;;;;;;13.49;69.03;98788.14;104536;1264;95294;-67
2023/06/02 18:57:37;;;;;;;6.50;3.70;;;;;;;13.44;69.36;98790.85;104523;1264;95214;-65
2023/06/02 19:00:12;;;;;;;6.70;3.70;;;;;;;13.40;69.63;98793.84;104611;1266;95327;-65
2023/06/02 19:02:39;;;;;;;4.70;3.40;;;;;;;13.37;69.80;98798.77;104533;1266;98752;-65
2023/06/02 19:05:08;;;;;;;7.30;3.90;;;;;;;13.36;69.86;98801.56;104554;1265;107708;-65
2023/06/02 19:07:35;;;;;;;6.00;3.80;;;;;;;13.31;70.00;98801.59;104616;1266;96665;-66
2023/06/02 19:10:03;;;;;;;8.10;3.70;;;;;;;13.28;70.25;98803.05;104474;1267;96534;-65
2023/06/02 19:12:30;;;;;;;4.90;3.20;;;;;;;13.27;70.22;98807.55;104577;1264;96676;-66
2023/06/02 19:14:57;;;;;;;5.70;3.20;;;;;;;13.28;70.12;98806.35;104481;1264;96564;-66
2023/06/02 19:17:24;;;;;;;8.80;4.80;;;;;;;13.26;70.28;98810.95;104536;1276;96747;-66
2023/06/02 19:19:51;;;;;;;8.30;5.20;;;;;;;13.21;70.43;98814.06;104605;1275;97468;-66
2023/06/02 19:22:19;;;;;;;7.30;5.30;;;;;;;13.19;70.27;98817.83;104551;1266;96565;-66
2023/06/02 19:24:46;;;;;;;11.90;9.50;;;;;;;13.15;70.25;98816.24;104558;1266;96719;-66
2023/06/02 19:27:13;;;;;;;3.90;3.00;;;;;;;13.14;70.04;98815.96;104361;1263;96570;-65
2023/06/02 19:29:42;;;;;;;5.80;3.50;;;;;;;13.07;70.12;98817.73;104560;1264;97598;-69
2023/06/02 19:32:09;;;;;;;8.70;4.80;;;;;;;13.03;70.23;98827.19;104428;1278;96552;-67
2023/06/02 19:34:36;;;;;;;10.20;5.40;;;;;;;13.03;70.30;98833.40;104630;1266;97042;-65
2023/06/02 19:37:04;;;;;;;6.10;3.80;;;;;;;13.01;70.25;98839.61;104570;1266;96600;-65
2023/06/02 19:39:32;;;;;;;6.30;3.50;;;;;;;13.04;70.17;98839.52;104649;1267;96635;-66
2023/06/02 19:41:59;;;;;;;6.40;3.30;;;;;;;13.01;70.06;98841.59;104568;1265;108145;-66
2023/06/02 19:44:27;;;;;;;8.50;3.20;;;;;;;12.98;70.40;98850.01;104587;1263;96556;-67
2023/06/02 19:46:56;;;;;;;5.90;3.10;;;;;;;12.93;70.35;98848.00;104583;1265;99528;-67
2023/06/02 19:49:24;;;;;;;8.60;3.40;;;;;;;12.89;70.39;98853.58;104605;1265;110619;-66
2023/06/02 19:51:52;;;;;;;7.20;3.70;;;;;;;12.88;70.27;98854.99;104625;1265;98330;-67
2023/06/02 19:54:19;;;;;;;5.20;3.50;;;;;;;12.84;70.57;98854.99;104559;1266;96635;-66
2023/06/02 19:56:46;;;;;;;5.30;3.30;;;;;;;12.78;70.60;98855.61;104542;1267;96662;-66
2023/06/02 19:59:13;;;;;;;6.20;3.30;;;;;;;12.76;70.69;98856.47;104544;1265;96638;-66
2023/06/02 20:01:40;;;;;;;5.20;3.00;;;;;;;12.72;71.04;98857.59;104579;1278;97744;-66
2023/06/02 20:04:07;;;;;;;6.30;3.70;;;;;;;12.66;71.24;98862.66;104644;1263;96645;-67
2023/06/02 20:06:35;;;;;;;3.10;2.50;;;;;;;12.60;71.32;98862.41;104600;1284;96547;-67
2023/06/02 20:09:06;;;;;;;5.90;2.70;;;;;;;12.53;71.55;98866.40;104633;1265;96644;-66
2023/06/02 20:11:34;;;;;;;5.40;2.90;;;;;;;12.45;72.01;98874.45;104583;1263;97839;-66
2023/06/02 20:14:01;;;;;;;5.90;3.20;;;;;;;12.39;71.77;98879.84;104701;1268;110092;-67
2023/06/02 20:16:29;;;;;;;8.60;2.90;;;;;;;12.32;72.13;98878.02;104601;1265;99169;-66
2023/06/02 20:18:56;;;;;;;3.90;2.90;;;;;;;12.25;72.38;98881.23;104595;1265;96550;-67
2023/06/02 20:21:26;;;;;;;6.00;3.10;;;;;;;12.19;72.67;98880.86;104451;1266;97867;-67
2023/06/02 20:23:54;;;;;;;7.60;3.00;;;;;;;12.15;72.57;98880.42;104410;1267;97342;-67
2023/06/02 20:26:21;;;;;;;10.70;3.20;;;;;;;12.12;72.80;98880.23;104443;1266;109900;-67
2023/06/02 20:28:48;;;;;;;5.40;3.50;;;;;;;12.09;72.93;98879.66;104423;1273;97477;-67
2023/06/02 20:31:16;;;;;;;8.30;5.00;;;;;;;12.06;72.68;98881.48;104369;1268;108577;-67
2023/06/02 20:33:43;;;;;;;16.10;9.00;;;;;;;12.03;72.96;98887.92;104465;1266;96543;-68
2023/06/02 20:36:10;;;;;;;28.00;14.10;;;;;;;11.97;72.75;98889.36;104549;1267;97394;-68
2023/06/02 20:38:43;;;;;;;52.80;28.30;;;;;;;11.91;73.11;98893.05;104546;1267;96645;-68
2023/06/02 20:41:14;;;;;;;27.40;15.90;;;;;;;11.86;73.27;98892.34;104405;1265;97933;-69
2023/06/02 20:43:43;;;;;;;29.10;18.40;;;;;;;11.82;73.20;98895.81;104487;1264;107887;-68
2023/06/02 20:46:11;;;;;;;18.30;11.00;;;;;;;11.81;72.98;98899.72;104460;1277;96614;-68
2023/06/02 20:48:38;;;;;;;9.30;5.70;;;;;;;11.80;72.97;98903.98;104499;1265;96967;-69
2023/06/02 20:51:05;;;;;;;13.10;4.70;;;;;;;11.77;73.39;98911.42;104631;1263;96543;-69
2023/06/02 20:53:32;;;;;;;7.60;3.60;;;;;;;11.72;73.67;98912.31;104511;1278;97661;-70
2023/06/02 20:55:59;;;;;;;9.00;4.30;;;;;;;11.70;73.71;98913.11;104533;1275;97781;-65
2023/06/02 20:58:27;;;;;;;5.40;4.30;;;;;;;11.71;73.56;98913.80;104579;1262;96552;-65
2023/06/02 21:00:54;;;;;;;7.70;4.60;;;;;;;11.72;73.36;98911.90;104597;1265;96595;-66
2023/06/02 21:03:21;;;;;;;9.30;4.30;;;;;;;11.72;73.65;98908.31;104599;1276;96642;-64
2023/06/02 21:05:49;;;;;;;8.60;4.30;;;;;;;11.69;74.18;98914.98;104610;1266;97743;-64
2023/06/02 21:08:16;;;;;;;7.50;3.90;;;;;;;11.64;74.12;98915.27;104562;1265;96995;-66
2023/06/02 21:10:44;;;;;;;6.70;4.50;;;;;;;11.63;73.96;98919.05;104601;1267;96581;-68
2023/06/02 21:13:11;;;;;;;11.00;5.80;;;;;;;11.66;73.65;98919.50;104573;1263;96558;-65